Minneapolis, Minnesota
Traffic Map
Current Weather Conditions
Minneapolis, Minnesota
Overcast
Overcast
12°
Feels Like: 12°
Wind Chill: 12° Ceiling: 900
Heat Index: 12° Visibility: 7mi
Dew Point: 10° Wind: 7mph
Humidity: 89% Direction: 200° (SSW)
Pressure: 29.99in Gusts: 0mph
Raw Report DataKMSP 231253Z 20006KT 7SM OVC009 12/10 A2999 RMK AO2 SLP159 T01170100
Traffic Incident Summary
Active as of:
Severity:
Category:
InformationThere was an issue retrieving the traffic information for this location. Please try a different location or try again shortly.
Advertisements
Track Severe Weather on mobile